createdAt,value
2017-11-28T00:00:37.979Z,100557.11
2017-11-28T00:03:06.292Z,100552.30
2017-11-28T00:05:35.390Z,100558.58
2017-11-28T00:08:04.483Z,100550.58
2017-11-28T00:10:33.571Z,100562.49
2017-11-28T00:13:02.641Z,100558.13
2017-11-28T00:15:30.982Z,100553.11
2017-11-28T00:17:59.339Z,100557.03
2017-11-28T00:20:28.445Z,100552.09
2017-11-28T00:22:57.534Z,100536.41
2017-11-28T00:25:25.853Z,100546.68
2017-11-28T00:27:54.166Z,100546.80
2017-11-28T00:30:22.626Z,100540.82
2017-11-28T00:32:50.960Z,100544.52
2017-11-28T00:35:19.289Z,100539.80
2017-11-28T00:37:47.628Z,100546.95
2017-11-28T00:40:15.944Z,100543.74
2017-11-28T00:42:44.243Z,100544.95
2017-11-28T00:45:12.670Z,100546.00
2017-11-28T00:47:40.994Z,100547.98
2017-11-28T00:50:09.312Z,100543.23
2017-11-28T00:52:38.497Z,100546.50
2017-11-28T00:55:06.802Z,100543.61
2017-11-28T00:57:35.148Z,100538.50
2017-11-28T01:00:03.481Z,100551.17
2017-11-28T01:02:32.577Z,100543.91
2017-11-28T01:05:01.044Z,100551.38
2017-11-28T01:07:29.356Z,100549.53
2017-11-28T01:09:58.548Z,100560.28
2017-11-28T01:12:27.663Z,100551.60
2017-11-28T01:14:55.989Z,100553.55
2017-11-28T01:17:24.348Z,100561.24
2017-11-28T01:19:52.790Z,100543.62
2017-11-28T01:22:21.861Z,100546.70
2017-11-28T01:24:51.677Z,100551.68
2017-11-28T01:27:20.045Z,100556.89
2017-11-28T01:29:48.357Z,100551.91
2017-11-28T01:32:16.934Z,100548.95
2017-11-28T01:34:45.274Z,100551.93
2017-11-28T01:37:13.647Z,100548.15
2017-11-28T01:39:42.110Z,100557.58
2017-11-28T01:42:11.201Z,100542.41
2017-11-28T01:44:40.315Z,100543.73
2017-11-28T01:47:09.543Z,100539.23
2017-11-28T01:49:37.883Z,100541.27
2017-11-28T01:52:07.111Z,100542.31
2017-11-28T01:54:35.469Z,100546.00
2017-11-28T01:57:04.607Z,100539.27
2017-11-28T01:59:32.990Z,100535.30
2017-11-28T02:02:01.317Z,100536.55
2017-11-28T02:04:29.697Z,100531.66
2017-11-28T02:06:58.032Z,100528.14
2017-11-28T02:09:26.407Z,100515.11
2017-11-28T02:11:54.745Z,100516.73
2017-11-28T02:14:23.148Z,100511.44
2017-11-28T02:16:51.469Z,100508.56
2017-11-28T02:19:19.860Z,100495.73
2017-11-28T02:21:48.751Z,100497.07
2017-11-28T02:24:18.141Z,100489.59
2017-11-28T02:26:46.606Z,100477.30
2017-11-28T02:29:15.421Z,100472.38
2017-11-28T02:31:43.955Z,100477.19
2017-11-28T02:34:13.264Z,100478.84
2017-11-28T02:36:42.740Z,100475.65
2017-11-28T02:39:11.105Z,100467.37
2017-11-28T02:41:39.472Z,100467.56
2017-11-28T02:44:08.609Z,100468.59
2017-11-28T02:46:36.905Z,100465.43
2017-11-28T02:49:16.979Z,100456.11
2017-11-28T02:51:51.864Z,100456.41
2017-11-28T02:54:20.797Z,100450.45
2017-11-28T02:56:49.257Z,100453.43
2017-11-28T03:06:30.136Z,100450.98
2017-11-28T03:09:16.968Z,100457.55
2017-11-28T03:11:45.297Z,100444.21
2017-11-28T03:27:46.774Z,100438.13
2017-11-28T03:33:08.565Z,100442.36
2017-11-28T03:35:36.978Z,100445.31
2017-11-28T03:38:05.673Z,100446.85
2017-11-28T03:40:34.008Z,100436.72
2017-11-28T03:43:03.107Z,100445.62
2017-11-28T03:45:47.828Z,100450.14
2017-11-28T03:48:16.421Z,100441.23
2017-11-28T03:50:44.875Z,100434.16
2017-11-28T03:53:14.882Z,100440.72
2017-11-28T03:55:43.394Z,100439.44
2017-11-28T03:58:12.506Z,100440.68
2017-11-28T04:00:41.080Z,100447.75
2017-11-28T04:03:10.256Z,100433.79
2017-11-28T04:05:39.255Z,100437.08
2017-11-28T04:08:07.613Z,100444.25
2017-11-28T04:10:36.024Z,100447.53
2017-11-28T04:13:04.658Z,100449.79
2017-11-28T04:15:32.983Z,100459.61
2017-11-28T04:18:01.464Z,100456.64
2017-11-28T04:20:29.892Z,100437.98
2017-11-28T04:22:58.195Z,100441.17
2017-11-28T04:25:27.455Z,100435.51
2017-11-28T04:27:55.992Z,100442.17
2017-11-28T04:30:25.359Z,100448.33
2017-11-28T04:32:53.900Z,100445.25
2017-11-28T04:35:22.403Z,100450.69
2017-11-28T04:37:51.411Z,100445.56
2017-11-28T04:40:19.902Z,100447.52
2017-11-28T04:42:48.257Z,100450.19
2017-11-28T04:45:16.930Z,100451.31
2017-11-28T04:47:45.536Z,100446.25
2017-11-28T04:50:15.061Z,100447.49
2017-11-28T04:52:43.457Z,100443.25
2017-11-28T04:55:11.944Z,100451.02
2017-11-28T04:57:41.044Z,100442.81
2017-11-28T05:00:10.175Z,100441.88
2017-11-28T05:02:39.256Z,100441.47
2017-11-28T05:05:07.579Z,100440.14
2017-11-28T05:07:35.977Z,100441.52
2017-11-28T05:10:05.113Z,100425.47
2017-11-28T05:12:34.272Z,100432.00
2017-11-28T05:15:02.654Z,100429.52
2017-11-28T05:17:31.072Z,100438.52
2017-11-28T05:19:59.552Z,100437.59
2017-11-28T05:22:28.643Z,100443.34
2017-11-28T05:24:57.689Z,100446.11
2017-11-28T05:27:26.341Z,100461.20
2017-11-28T05:29:55.778Z,100471.34
2017-11-28T05:32:25.466Z,100463.50
2017-11-28T05:34:54.061Z,100461.87
2017-11-28T05:37:22.377Z,100454.28
2017-11-28T05:39:51.181Z,100460.02
2017-11-28T05:42:19.799Z,100455.09
2017-11-28T05:44:48.176Z,100452.95
2017-11-28T05:47:16.584Z,100448.72
2017-11-28T05:49:44.891Z,100454.23
2017-11-28T05:52:13.357Z,100457.38
2017-11-28T05:54:43.341Z,100461.08
2017-11-28T05:57:12.315Z,100461.39
2017-11-28T05:59:40.751Z,100473.66
2017-11-28T06:02:09.390Z,100477.87
2017-11-28T06:04:37.760Z,100501.23
2017-11-28T06:07:06.269Z,100510.67
2017-11-28T06:09:34.639Z,100498.45
2017-11-28T06:12:03.574Z,100498.59
2017-11-28T06:14:32.134Z,100487.95
2017-11-28T06:17:00.716Z,100489.83
2017-11-28T06:19:29.236Z,100495.46
2017-11-28T06:21:58.348Z,100492.30
2017-11-28T06:24:27.425Z,100497.55
2017-11-28T06:26:58.030Z,100500.38
2017-11-28T06:29:27.243Z,100496.51
2017-11-28T06:31:55.610Z,100504.04
2017-11-28T06:34:24.308Z,100510.75
2017-11-28T06:36:52.888Z,100502.25
2017-11-28T06:53:00.231Z,100521.54
2017-11-28T06:55:28.868Z,100517.52
2017-11-28T06:57:57.418Z,100521.92
2017-11-28T07:00:26.000Z,100519.43
2017-11-28T07:02:54.311Z,100519.65
2017-11-28T07:05:22.716Z,100522.54
2017-11-28T07:07:51.009Z,100525.25
2017-11-28T07:10:19.335Z,100533.89
2017-11-28T07:12:47.710Z,100532.78
2017-11-28T07:15:16.044Z,100523.97
2017-11-28T07:17:45.155Z,100526.36
2017-11-28T07:20:13.698Z,100530.02
2017-11-28T07:22:42.137Z,100526.75
2017-11-28T07:25:10.486Z,100527.92
2017-11-28T07:27:39.712Z,100529.86
2017-11-28T07:30:08.027Z,100543.41
2017-11-28T07:32:36.429Z,100542.02
2017-11-28T07:35:04.902Z,100544.95
2017-11-28T07:37:33.910Z,100543.19
2017-11-28T07:40:02.262Z,100565.83
2017-11-28T07:42:30.604Z,100573.16
2017-11-28T07:44:59.710Z,100563.52
2017-11-28T07:47:28.023Z,100565.57
2017-11-28T07:49:56.596Z,100563.67
2017-11-28T07:52:24.935Z,100553.45
2017-11-28T07:54:53.256Z,100553.39
2017-11-28T07:57:21.726Z,100563.64
2017-11-28T07:59:50.833Z,100561.30
2017-11-28T08:02:19.853Z,100559.59
2017-11-28T08:04:48.207Z,100562.95
2017-11-28T08:07:16.527Z,100567.86
2017-11-28T08:09:44.933Z,100556.83
2017-11-28T08:12:14.084Z,100566.08
2017-11-28T08:14:42.410Z,100555.13
2017-11-28T08:17:10.870Z,100560.25
2017-11-28T08:19:39.376Z,100562.86
2017-11-28T08:22:10.067Z,100574.22
2017-11-28T08:24:39.005Z,100594.45
2017-11-28T08:27:07.314Z,100609.28
2017-11-28T08:29:36.956Z,100603.48
2017-11-28T08:32:05.458Z,100577.45
2017-11-28T08:34:33.795Z,100575.53
2017-11-28T08:37:03.036Z,100582.20
2017-11-28T08:39:31.478Z,100588.56
2017-11-28T08:41:59.892Z,100572.02
2017-11-28T08:44:29.125Z,100572.72
2017-11-28T08:46:57.435Z,100580.41
2017-11-28T08:49:26.605Z,100571.82
2017-11-28T08:51:54.944Z,100576.69
2017-11-28T08:54:23.246Z,100578.64
2017-11-28T08:56:51.577Z,100586.55
2017-11-28T08:59:21.229Z,100584.52
2017-11-28T09:01:49.546Z,100584.58
2017-11-28T09:04:18.833Z,100588.31
2017-11-28T09:06:47.206Z,100586.53
2017-11-28T09:09:15.684Z,100585.72
2017-11-28T09:11:44.114Z,100589.42
2017-11-28T09:14:12.510Z,100596.34
2017-11-28T09:16:41.745Z,100580.39
2017-11-28T09:19:10.183Z,100569.81
2017-11-28T09:21:38.513Z,100563.63
2017-11-28T09:24:06.901Z,100563.35
2017-11-28T09:26:35.220Z,100562.94
2017-11-28T09:29:03.655Z,100567.34
2017-11-28T09:31:31.962Z,100565.09
2017-11-28T09:34:00.507Z,100567.56
2017-11-28T09:36:28.819Z,100571.42
2017-11-28T09:38:57.241Z,100582.83
2017-11-28T09:41:26.319Z,100578.06
2017-11-28T09:43:54.656Z,100570.33
2017-11-28T09:46:22.961Z,100571.41
2017-11-28T09:48:51.281Z,100565.13
2017-11-28T09:51:20.538Z,100565.58
2017-11-28T09:53:48.831Z,100572.08
2017-11-28T09:56:17.143Z,100569.56
2017-11-28T09:58:45.594Z,100582.33
2017-11-28T10:01:13.985Z,100609.91
2017-11-28T10:03:42.305Z,100623.17
2017-11-28T10:06:11.390Z,100635.88
2017-11-28T10:08:40.532Z,100640.33
2017-11-28T10:11:08.867Z,100641.05
2017-11-28T10:13:37.938Z,100626.91
2017-11-28T10:16:06.284Z,100624.30
2017-11-28T10:18:35.424Z,100619.17
2017-11-28T10:21:04.530Z,100622.56
2017-11-28T10:23:32.863Z,100605.19
2017-11-28T10:26:01.197Z,100603.76
2017-11-28T10:28:31.033Z,100598.27
2017-11-28T10:31:00.105Z,100621.41
2017-11-28T10:33:29.200Z,100625.72
2017-11-28T10:35:57.621Z,100619.82
2017-11-28T10:38:26.696Z,100626.27
2017-11-28T10:40:55.789Z,100622.12
2017-11-28T10:43:25.043Z,100618.05
2017-11-28T10:45:53.361Z,100609.66
2017-11-28T10:48:21.696Z,100603.90
2017-11-28T10:50:50.032Z,100591.71
2017-11-28T10:53:19.881Z,100594.64
2017-11-28T10:55:48.219Z,100584.56
2017-11-28T10:58:17.315Z,100579.89
2017-11-28T11:00:45.812Z,100580.03
2017-11-28T11:03:14.125Z,100586.34
2017-11-28T11:05:42.430Z,100576.23
2017-11-28T11:08:10.769Z,100575.87
2017-11-28T11:10:40.632Z,100572.84
2017-11-28T11:13:08.966Z,100567.04
2017-11-28T11:15:38.045Z,100566.77
2017-11-28T11:18:06.428Z,100565.80
2017-11-28T11:20:35.796Z,100557.83
2017-11-28T11:23:04.110Z,100564.80
2017-11-28T11:25:33.960Z,100563.14
2017-11-28T11:28:02.287Z,100567.88
2017-11-28T11:30:30.605Z,100564.43
2017-11-28T11:32:58.900Z,100564.38
2017-11-28T11:35:27.253Z,100556.52
2017-11-28T11:37:56.349Z,100553.80
2017-11-28T11:40:24.765Z,100551.20
2017-11-28T11:42:53.921Z,100549.15
2017-11-28T11:45:22.335Z,100552.75
2017-11-28T11:47:50.663Z,100550.96
2017-11-28T11:50:19.121Z,100549.72
2017-11-28T11:52:47.484Z,100538.39
2017-11-28T11:55:16.618Z,100543.09
2017-11-28T11:57:45.600Z,100541.23
2017-11-28T12:00:13.964Z,100543.31
2017-11-28T12:02:43.050Z,100531.55
2017-11-28T12:05:11.374Z,100531.59
2017-11-28T12:07:39.681Z,100526.14
2017-11-28T12:10:08.023Z,100526.61
2017-11-28T12:12:36.345Z,100539.55
2017-11-28T12:15:04.678Z,100524.77
2017-11-28T12:17:33.013Z,100528.30
2017-11-28T12:20:01.359Z,100519.69
2017-11-28T12:22:31.023Z,100519.64
2017-11-28T12:24:59.346Z,100518.66
2017-11-28T12:27:27.753Z,100521.05
2017-11-28T12:29:56.111Z,100512.55
2017-11-28T12:32:24.576Z,100509.34
2017-11-28T12:34:52.913Z,100513.36
2017-11-28T12:37:21.256Z,100513.33
2017-11-28T12:39:49.597Z,100504.61
2017-11-28T12:42:17.962Z,100521.23
2017-11-28T12:44:46.313Z,100508.45
2017-11-28T12:47:14.630Z,100504.75
2017-11-28T12:49:44.461Z,100512.54
2017-11-28T12:52:14.308Z,100520.68
2017-11-28T12:54:42.728Z,100512.05
2017-11-28T12:57:11.027Z,100520.12
2017-11-28T12:59:40.100Z,100516.92
2017-11-28T13:02:08.423Z,100521.87
2017-11-28T13:04:37.508Z,100514.20
2017-11-28T13:07:05.843Z,100518.92
2017-11-28T13:09:34.160Z,100512.33
2017-11-28T13:12:02.488Z,100512.33
2017-11-28T13:14:30.805Z,100505.84
2017-11-28T13:16:59.105Z,100509.08
2017-11-28T13:19:27.697Z,100499.62
2017-11-28T13:21:56.014Z,100502.38
2017-11-28T13:24:25.112Z,100503.91
2017-11-28T13:26:54.208Z,100515.28
2017-11-28T13:29:23.305Z,100514.81
2017-11-28T13:31:52.479Z,100512.16
2017-11-28T13:34:20.819Z,100514.95
2017-11-28T13:36:49.237Z,100525.88
2017-11-28T13:39:17.538Z,100538.69
2017-11-28T13:41:46.640Z,100549.58
2017-11-28T13:44:15.723Z,100529.47
2017-11-28T13:46:44.226Z,100527.21
2017-11-28T13:49:13.321Z,100528.27
2017-11-28T13:51:42.428Z,100522.89
2017-11-28T13:54:11.600Z,100529.86
2017-11-28T13:56:40.439Z,100523.12
2017-11-28T13:59:08.753Z,100520.98
2017-11-28T14:01:37.072Z,100519.75
2017-11-28T14:04:05.379Z,100515.86
2017-11-28T14:06:33.696Z,100509.47
2017-11-28T14:09:02.003Z,100511.09
2017-11-28T14:11:31.106Z,100517.84
2017-11-28T14:14:00.274Z,100518.66
2017-11-28T14:16:28.604Z,100513.98
2017-11-28T14:18:57.673Z,100511.64
2017-11-28T14:21:27.862Z,100513.76
2017-11-28T14:24:02.641Z,100515.41
2017-11-28T14:26:38.355Z,100515.19
2017-11-28T14:32:09.983Z,100515.37
2017-11-28T14:34:44.260Z,100515.06
2017-11-28T14:37:12.570Z,100515.81
2017-11-28T14:39:40.908Z,100515.81
2017-11-28T14:42:19.240Z,100517.72
2017-11-28T14:47:50.949Z,100518.91
2017-11-28T14:50:19.287Z,100519.27
2017-11-28T14:52:49.205Z,100523.12
2017-11-28T14:55:23.917Z,100512.45
2017-11-28T14:58:04.949Z,100518.55
2017-11-28T15:00:39.469Z,100512.03
2017-11-28T15:03:13.165Z,100517.98
2017-11-28T15:05:46.814Z,100522.00
2017-11-28T15:08:20.667Z,100522.27
2017-11-28T15:10:50.843Z,100520.14
2017-11-28T15:16:25.299Z,100519.92
2017-11-28T15:18:53.662Z,100517.05
2017-11-28T15:21:27.756Z,100518.31
2017-11-28T15:23:58.424Z,100513.69
2017-11-28T15:26:29.056Z,100523.18
2017-11-28T15:29:13.047Z,100511.63
2017-11-28T15:31:41.374Z,100520.66
2017-11-28T15:34:10.779Z,100526.19
2017-11-28T15:36:40.098Z,100522.11
2017-11-28T15:39:08.447Z,100526.80
2017-11-28T15:41:36.777Z,100527.84
2017-11-28T15:44:05.091Z,100527.77
2017-11-28T15:46:33.448Z,100533.02
2017-11-28T15:49:01.754Z,100529.58
2017-11-28T15:51:30.858Z,100541.30
2017-11-28T15:53:59.163Z,100527.60
2017-11-28T15:56:27.535Z,100532.40
2017-11-28T15:58:56.706Z,100530.66
2017-11-28T16:01:25.040Z,100527.41
2017-11-28T16:03:53.341Z,100522.56
2017-11-28T16:06:21.642Z,100518.27
2017-11-28T16:08:50.005Z,100520.05
2017-11-28T16:11:18.319Z,100516.98
2017-11-28T16:13:48.149Z,100520.75
2017-11-28T16:16:17.499Z,100520.15
2017-11-28T16:18:45.829Z,100522.58
2017-11-28T16:21:14.174Z,100522.11
2017-11-28T16:23:42.476Z,100526.96
2017-11-28T16:26:10.790Z,100528.20
2017-11-28T16:28:39.908Z,100533.84
2017-11-28T16:31:08.217Z,100536.81
2017-11-28T16:33:36.986Z,100528.61
2017-11-28T16:36:05.300Z,100541.63
2017-11-28T16:38:33.650Z,100538.97
2017-11-28T16:41:01.943Z,100542.45
2017-11-28T16:43:30.255Z,100543.50
2017-11-28T16:46:00.079Z,100536.86
2017-11-28T16:48:29.205Z,100537.53
2017-11-28T16:50:57.538Z,100540.65
2017-11-28T16:53:25.890Z,100541.11
2017-11-28T16:55:54.201Z,100548.87
2017-11-28T16:58:23.330Z,100550.31
2017-11-28T17:00:52.771Z,100546.36
2017-11-28T17:03:21.083Z,100542.74
2017-11-28T17:05:49.434Z,100536.54
2017-11-28T17:08:17.766Z,100528.50
2017-11-28T17:10:46.107Z,100535.16
2017-11-28T17:13:14.441Z,100538.75
2017-11-28T17:15:42.750Z,100532.05
2017-11-28T17:18:11.065Z,100530.36
2017-11-28T17:20:39.399Z,100524.55
2017-11-28T17:23:07.716Z,100517.05
2017-11-28T17:25:36.012Z,100514.39
2017-11-28T17:28:04.332Z,100517.23
2017-11-28T17:30:33.422Z,100515.16
2017-11-28T17:33:01.786Z,100517.58
2017-11-28T17:35:30.091Z,100513.33
2017-11-28T17:37:59.182Z,100519.56
2017-11-28T17:40:27.509Z,100520.89
2017-11-28T17:42:55.890Z,100532.67
2017-11-28T17:45:24.210Z,100528.08
2017-11-28T17:47:52.515Z,100534.92
2017-11-28T17:50:21.595Z,100534.46
2017-11-28T17:52:49.994Z,100530.36
2017-11-28T17:55:19.062Z,100533.56
2017-11-28T17:57:47.394Z,100526.70
2017-11-28T18:00:15.737Z,100534.62
2017-11-28T18:02:44.892Z,100525.93
2017-11-28T18:05:13.250Z,100526.34
2017-11-28T18:07:42.371Z,100533.13
2017-11-28T18:10:10.689Z,100531.53
2017-11-28T18:12:39.022Z,100539.99
2017-11-28T18:15:07.352Z,100542.19
2017-11-28T18:17:36.399Z,100536.36
2017-11-28T18:20:04.796Z,100525.36
2017-11-28T18:22:34.560Z,100523.37
2017-11-28T18:25:03.651Z,100525.08
2017-11-28T18:27:32.009Z,100522.92
2017-11-28T18:30:00.345Z,100515.16
2017-11-28T18:32:29.464Z,100514.97
2017-11-28T18:34:57.856Z,100514.33
2017-11-28T18:37:26.190Z,100505.68
2017-11-28T18:39:54.495Z,100509.66
2017-11-28T18:42:22.802Z,100507.50
2017-11-28T18:44:51.109Z,100512.72
2017-11-28T18:47:19.432Z,100510.51
2017-11-28T18:49:47.764Z,100509.82
2017-11-28T18:52:16.096Z,100518.15
2017-11-28T18:54:45.205Z,100515.13
2017-11-28T18:57:13.553Z,100513.23
2017-11-28T18:59:42.625Z,100515.70
2017-11-28T19:02:10.946Z,100511.08
2017-11-28T19:04:39.310Z,100518.48
2017-11-28T19:07:08.406Z,100524.89
2017-11-28T19:09:36.764Z,100522.23
2017-11-28T19:12:05.124Z,100528.67
2017-11-28T19:14:33.528Z,100522.84
2017-11-28T19:17:01.853Z,100525.25
2017-11-28T19:19:30.982Z,100519.95
2017-11-28T19:21:59.279Z,100514.48
2017-11-28T19:24:27.587Z,100519.84
2017-11-28T19:26:57.385Z,100520.06
2017-11-28T19:29:25.703Z,100518.65
2017-11-28T19:31:54.758Z,100512.95
2017-11-28T19:34:23.068Z,100515.56
2017-11-28T19:36:52.229Z,100516.39
2017-11-28T19:39:20.544Z,100513.67
2017-11-28T19:41:49.645Z,100510.75
2017-11-28T19:44:17.964Z,100496.29
2017-11-28T19:46:46.268Z,100500.18
2017-11-28T19:49:14.593Z,100495.14
2017-11-28T19:51:43.840Z,100496.20
2017-11-28T19:54:12.277Z,100494.64
2017-11-28T19:56:41.354Z,100495.73
2017-11-28T19:59:09.687Z,100499.75
2017-11-28T20:01:38.083Z,100495.86
2017-11-28T20:04:07.453Z,100490.04
2017-11-28T20:06:35.842Z,100486.97
2017-11-28T20:09:04.369Z,100482.27
2017-11-28T20:11:32.693Z,100489.22
2017-11-28T20:14:01.209Z,100495.16
2017-11-28T20:16:30.420Z,100499.14
2017-11-28T20:18:58.738Z,100498.93
2017-11-28T20:21:27.082Z,100498.06
2017-11-28T20:23:55.369Z,100496.78
2017-11-28T20:26:23.698Z,100504.52
2017-11-28T20:28:52.796Z,100504.28
2017-11-28T20:31:21.874Z,100501.41
2017-11-28T20:33:50.166Z,100501.95
2017-11-28T20:36:18.465Z,100510.26
2017-11-28T20:38:47.607Z,100503.44
2017-11-28T20:41:15.919Z,100504.08
2017-11-28T20:43:44.261Z,100505.27
2017-11-28T20:46:12.564Z,100506.44
2017-11-28T20:48:40.920Z,100503.69
2017-11-28T20:51:09.293Z,100500.53
2017-11-28T20:53:38.327Z,100502.31
2017-11-28T20:56:06.621Z,100500.14
2017-11-28T20:58:34.942Z,100498.92
2017-11-28T21:01:03.397Z,100495.73
2017-11-28T21:03:32.500Z,100501.91
2017-11-28T21:06:00.790Z,100505.16
2017-11-28T21:08:29.880Z,100503.55
2017-11-28T21:10:58.962Z,100495.84
2017-11-28T21:13:27.271Z,100493.52
2017-11-28T21:15:56.347Z,100492.51
2017-11-28T21:18:25.408Z,100488.80
2017-11-28T21:20:53.724Z,100499.30
2017-11-28T21:23:22.045Z,100494.18
2017-11-28T21:25:50.350Z,100496.76
2017-11-28T21:28:18.664Z,100492.33
2017-11-28T21:30:46.963Z,100489.35
2017-11-28T21:33:16.049Z,100490.38
2017-11-28T21:35:45.869Z,100483.00
2017-11-28T21:38:14.189Z,100488.31
2017-11-28T21:40:42.517Z,100493.30
2017-11-28T21:43:10.821Z,100485.25
2017-11-28T21:45:39.997Z,100490.28
2017-11-28T21:48:08.565Z,100483.23
2017-11-28T21:50:36.862Z,100482.19
2017-11-28T21:53:05.174Z,100479.30
2017-11-28T21:55:34.246Z,100481.55
2017-11-28T21:58:02.577Z,100473.77
2017-11-28T22:00:30.979Z,100477.66
2017-11-28T22:02:59.324Z,100473.91
2017-11-28T22:05:28.378Z,100479.48
2017-11-28T22:07:56.727Z,100483.92
2017-11-28T22:10:25.045Z,100485.48
2017-11-28T22:12:53.837Z,100482.45
2017-11-28T22:15:22.177Z,100493.67
2017-11-28T22:17:50.501Z,100492.20
2017-11-28T22:20:19.738Z,100492.84
2017-11-28T22:22:48.820Z,100494.41
2017-11-28T22:25:18.070Z,100489.05
2017-11-28T22:27:46.384Z,100485.78
2017-11-28T22:30:16.139Z,100487.70
2017-11-28T22:32:44.613Z,100487.43
2017-11-28T22:35:13.782Z,100494.52
2017-11-28T22:37:43.813Z,100484.80
2017-11-28T22:40:12.737Z,100486.72
2017-11-28T22:42:41.095Z,100485.69
2017-11-28T22:45:09.401Z,100485.47
2017-11-28T22:47:37.732Z,100487.38
2017-11-28T22:50:06.077Z,100488.77
2017-11-28T22:52:34.386Z,100491.92
2017-11-28T22:55:02.731Z,100493.18
2017-11-28T22:57:31.045Z,100491.27
2017-11-28T22:59:59.371Z,100492.19
2017-11-28T23:02:28.536Z,100492.77
2017-11-28T23:04:57.701Z,100499.23
2017-11-28T23:07:26.083Z,100499.30
2017-11-28T23:09:54.488Z,100501.50
2017-11-28T23:12:23.793Z,100502.16
2017-11-28T23:14:52.151Z,100493.42
2017-11-28T23:17:21.627Z,100494.89
2017-11-28T23:19:51.523Z,100490.14
2017-11-28T23:22:20.655Z,100487.61
2017-11-28T23:24:48.985Z,100491.19
2017-11-28T23:27:17.293Z,100486.28
2017-11-28T23:29:46.389Z,100481.69
2017-11-28T23:32:15.475Z,100480.77
2017-11-28T23:34:45.309Z,100472.24
2017-11-28T23:37:13.626Z,100466.16
2017-11-28T23:39:41.933Z,100471.41
2017-11-28T23:42:10.265Z,100461.61
2017-11-28T23:44:42.788Z,100461.05
2017-11-28T23:47:15.322Z,100468.92
2017-11-28T23:49:48.458Z,100471.84
2017-11-28T23:52:27.237Z,100469.55
2017-11-28T23:54:55.897Z,100461.84
2017-11-28T23:57:25.056Z,100455.84
2017-11-28T23:59:53.378Z,100454.65
